createdAt,value
2023-02-13T00:01:24.087Z,82.03
2023-02-13T00:03:57.456Z,81.60
2023-02-13T00:06:31.390Z,82.11
2023-02-13T00:09:06.468Z,81.74
2023-02-13T00:11:41.034Z,82.44
2023-02-13T00:14:16.027Z,82.10
2023-02-13T00:16:51.609Z,82.45
2023-02-13T00:19:25.275Z,82.35
2023-02-13T00:21:58.594Z,82.76
2023-02-13T00:24:31.976Z,82.68
2023-02-13T00:27:05.236Z,82.65
2023-02-13T00:29:39.832Z,83.31
2023-02-13T00:32:13.252Z,84.06
2023-02-13T00:34:46.679Z,83.90
2023-02-13T00:37:20.129Z,83.54
2023-02-13T00:39:53.630Z,84.31
2023-02-13T00:42:26.794Z,84.59
2023-02-13T00:45:01.403Z,83.95
2023-02-13T00:47:34.893Z,82.82
2023-02-13T00:50:08.798Z,83.62
2023-02-13T00:52:42.394Z,83.60
2023-02-13T00:55:16.017Z,83.36
2023-02-13T00:57:49.280Z,83.09
2023-02-13T01:00:23.868Z,83.10
2023-02-13T01:02:57.513Z,82.92
2023-02-13T01:05:31.060Z,83.84
2023-02-13T01:08:04.708Z,83.24
2023-02-13T01:10:39.021Z,83.30
2023-02-13T01:13:13.096Z,83.23
2023-02-13T01:15:49.862Z,82.64
2023-02-13T01:18:23.530Z,83.27
2023-02-13T01:20:59.410Z,82.91
2023-02-13T01:23:34.423Z,83.08
2023-02-13T01:26:09.419Z,82.39
2023-02-13T01:28:42.835Z,82.56
2023-02-13T01:31:17.470Z,83.07
2023-02-13T01:33:50.888Z,83.14
2023-02-13T01:36:24.083Z,82.82
2023-02-13T01:39:00.146Z,82.89
2023-02-13T01:41:33.810Z,82.71
2023-02-13T01:44:40.438Z,82.68
2023-02-13T01:47:18.118Z,81.96
2023-02-13T01:49:55.693Z,82.56
2023-02-13T01:52:30.005Z,82.87
2023-02-13T01:55:03.595Z,82.16
2023-02-13T01:57:40.280Z,82.50
2023-02-13T02:00:15.846Z,82.42
2023-02-13T02:02:54.459Z,83.06
2023-02-13T02:05:32.106Z,82.33
2023-02-13T02:08:10.499Z,82.47
2023-02-13T02:10:44.311Z,83.42
2023-02-13T02:13:20.410Z,83.51
2023-02-13T02:15:54.145Z,84.01
2023-02-13T02:18:28.998Z,83.25
2023-02-13T02:21:43.986Z,83.39
2023-02-13T02:25:05.065Z,83.03
2023-02-13T02:28:11.928Z,83.52
2023-02-13T02:31:18.450Z,83.00
2023-02-13T02:34:08.211Z,83.17
2023-02-13T02:36:59.117Z,83.20
2023-02-13T02:39:40.938Z,83.05
2023-02-13T02:42:22.272Z,82.71
2023-02-13T02:45:02.438Z,83.30
2023-02-13T02:48:02.872Z,82.96
2023-02-13T02:50:43.135Z,83.57
2023-02-13T02:53:25.727Z,83.75
2023-02-13T02:56:07.308Z,83.77
2023-02-13T02:59:05.346Z,83.38
2023-02-13T03:01:57.167Z,83.79
2023-02-13T03:04:52.549Z,83.69
2023-02-13T03:07:27.889Z,83.41
2023-02-13T03:10:20.783Z,83.93
2023-02-13T03:13:22.053Z,84.16
2023-02-13T03:16:18.081Z,83.69
2023-02-13T03:19:14.259Z,83.75
2023-02-13T03:22:08.572Z,84.11
2023-02-13T03:24:47.456Z,84.40
2023-02-13T03:27:48.955Z,85.03
2023-02-13T03:30:41.864Z,84.78
2023-02-13T03:33:27.474Z,84.53
2023-02-13T03:36:25.897Z,84.31
2023-02-13T03:39:04.974Z,84.24
2023-02-13T03:41:42.942Z,84.09
2023-02-13T03:44:24.241Z,84.22
2023-02-13T03:47:01.603Z,83.95
2023-02-13T03:49:56.662Z,83.90
2023-02-13T03:52:35.976Z,83.68
2023-02-13T03:55:31.061Z,83.70
2023-02-13T03:58:27.215Z,83.78
2023-02-13T04:01:05.350Z,83.76
2023-02-13T04:03:47.110Z,83.95
2023-02-13T04:06:23.900Z,84.23
2023-02-13T04:08:57.499Z,84.35
2023-02-13T04:11:36.243Z,83.94
2023-02-13T04:14:20.406Z,84.00
2023-02-13T04:16:59.021Z,84.16
2023-02-13T04:19:33.927Z,84.78
2023-02-13T04:22:07.257Z,84.27
2023-02-13T04:24:40.750Z,84.10
2023-02-13T04:27:15.386Z,84.50
2023-02-13T04:29:49.924Z,84.14
2023-02-13T04:32:23.128Z,84.41
2023-02-13T04:34:56.654Z,84.06
2023-02-13T04:37:30.264Z,84.42
2023-02-13T04:40:03.508Z,84.33
2023-02-13T04:42:36.667Z,84.20
2023-02-13T04:45:11.722Z,84.28
2023-02-13T04:47:45.138Z,84.28
2023-02-13T04:50:18.893Z,83.87
2023-02-13T04:52:55.719Z,84.36
2023-02-13T04:55:29.808Z,84.45
2023-02-13T04:58:02.886Z,84.08
2023-02-13T05:00:38.188Z,84.39
2023-02-13T05:03:13.919Z,84.78
2023-02-13T05:05:47.310Z,84.75
2023-02-13T05:08:21.116Z,84.00
2023-02-13T05:10:54.338Z,84.11
2023-02-13T05:13:27.980Z,84.25
2023-02-13T05:16:03.121Z,84.39
2023-02-13T05:18:36.504Z,84.38
2023-02-13T05:21:27.376Z,84.68
2023-02-13T05:24:01.277Z,85.21
2023-02-13T05:26:34.971Z,84.99
2023-02-13T05:29:20.161Z,85.16
2023-02-13T05:31:56.889Z,85.59
2023-02-13T05:34:30.807Z,85.93
2023-02-13T05:37:03.941Z,85.81
2023-02-13T05:39:37.190Z,85.58
2023-02-13T05:42:10.701Z,85.06
2023-02-13T05:44:44.038Z,85.27
2023-02-13T05:47:18.748Z,85.10
2023-02-13T05:49:52.055Z,84.94
2023-02-13T05:52:26.643Z,85.28
2023-02-13T05:55:00.347Z,85.53
2023-02-13T05:57:34.819Z,85.67
2023-02-13T06:00:09.876Z,85.76
2023-02-13T06:02:44.556Z,85.40
2023-02-13T06:05:17.963Z,85.70
2023-02-13T06:07:51.171Z,85.19
2023-02-13T06:10:24.348Z,84.98
2023-02-13T06:12:57.635Z,85.22
2023-02-13T06:15:31.105Z,85.36
2023-02-13T06:18:06.043Z,85.19
2023-02-13T06:20:49.485Z,85.16
2023-02-13T06:23:23.477Z,85.06
2023-02-13T06:25:56.967Z,85.18
2023-02-13T06:28:30.816Z,85.46
2023-02-13T06:31:04.237Z,84.93
2023-02-13T06:33:38.984Z,84.95
2023-02-13T06:36:12.212Z,85.04
2023-02-13T06:38:45.531Z,85.10
2023-02-13T06:41:19.128Z,84.82
2023-02-13T06:43:52.263Z,84.44
2023-02-13T06:46:25.994Z,84.55
2023-02-13T06:49:00.880Z,84.88
2023-02-13T06:51:34.291Z,84.80
2023-02-13T06:54:07.655Z,84.91
2023-02-13T06:56:41.202Z,84.57
2023-02-13T06:59:14.515Z,84.46
2023-02-13T07:01:48.294Z,84.46
2023-02-13T07:04:23.205Z,84.20
2023-02-13T07:06:57.070Z,84.18
2023-02-13T07:09:30.184Z,83.86
2023-02-13T07:12:05.084Z,83.37
2023-02-13T07:14:39.245Z,83.56
2023-02-13T07:17:12.764Z,83.59
2023-02-13T07:19:47.695Z,83.54
2023-02-13T07:22:20.903Z,83.79
2023-02-13T07:24:54.234Z,83.38
2023-02-13T07:27:29.349Z,82.84
2023-02-13T07:30:02.567Z,82.77
2023-02-13T07:32:36.031Z,82.99
2023-02-13T07:35:10.994Z,82.50
2023-02-13T07:37:44.206Z,81.78
2023-02-13T07:40:17.324Z,81.61
2023-02-13T07:42:50.721Z,82.04
2023-02-13T07:45:23.966Z,80.72
2023-02-13T07:47:57.534Z,80.21
2023-02-13T07:50:32.958Z,78.63
2023-02-13T07:53:06.183Z,76.89
2023-02-13T07:55:39.544Z,77.47
2023-02-13T07:58:13.528Z,77.11
2023-02-13T08:00:46.870Z,72.34
2023-02-13T08:03:20.084Z,69.30
2023-02-13T08:05:55.339Z,68.11
2023-02-13T08:08:29.057Z,68.22
2023-02-13T08:11:24.861Z,68.74
2023-02-13T08:13:59.036Z,68.86
2023-02-13T08:16:32.741Z,68.34
2023-02-13T08:19:06.254Z,68.15
2023-02-13T08:21:41.153Z,65.90
2023-02-13T08:24:14.849Z,65.23
2023-02-13T08:26:48.350Z,66.06
2023-02-13T08:29:22.014Z,65.50
2023-02-13T08:31:55.449Z,63.08
2023-02-13T08:34:28.915Z,60.21
2023-02-13T08:37:04.907Z,60.94
2023-02-13T08:39:38.457Z,61.23
2023-02-13T08:42:15.165Z,62.77
2023-02-13T08:44:50.201Z,62.83
2023-02-13T08:47:23.389Z,61.82
2023-02-13T08:49:57.616Z,61.45
2023-02-13T08:52:32.204Z,60.18
2023-02-13T08:55:05.827Z,60.05
2023-02-13T08:57:39.113Z,58.33
2023-02-13T09:00:14.676Z,58.83
2023-02-13T09:02:48.004Z,58.83
2023-02-13T09:05:21.552Z,58.04
2023-02-13T09:07:56.229Z,56.68
2023-02-13T09:10:29.518Z,56.49
2023-02-13T09:13:03.602Z,55.29
2023-02-13T09:15:39.963Z,56.46
2023-02-13T09:18:13.419Z,56.24
2023-02-13T09:20:46.885Z,57.51
2023-02-13T09:23:21.537Z,57.58
2023-02-13T09:25:54.912Z,57.74
2023-02-13T09:28:28.708Z,56.63
2023-02-13T09:31:07.464Z,56.40
2023-02-13T09:33:40.672Z,56.50
2023-02-13T09:36:16.349Z,55.99
2023-02-13T09:38:54.477Z,57.23
2023-02-13T09:41:31.781Z,55.15
2023-02-13T09:44:33.313Z,55.46
2023-02-13T09:47:12.389Z,55.08
2023-02-13T09:49:48.281Z,55.26
2023-02-13T09:52:21.765Z,55.71
2023-02-13T09:54:56.713Z,55.79
2023-02-13T09:57:34.760Z,54.68
2023-02-13T10:00:14.648Z,55.67
2023-02-13T10:03:08.299Z,55.51
2023-02-13T10:05:48.455Z,55.36
2023-02-13T10:08:34.769Z,54.74
2023-02-13T10:11:26.042Z,54.98
2023-02-13T10:14:06.631Z,55.34
2023-02-13T10:16:44.839Z,55.32
2023-02-13T10:19:29.627Z,55.16
2023-02-13T10:22:08.430Z,55.42
2023-02-13T10:24:45.504Z,55.31
2023-02-13T10:27:26.100Z,54.88
2023-02-13T10:30:12.876Z,55.36
2023-02-13T10:33:15.123Z,55.14
2023-02-13T10:35:54.805Z,55.21
2023-02-13T10:38:31.387Z,54.74
2023-02-13T10:41:15.970Z,55.72
2023-02-13T10:44:04.521Z,56.03
2023-02-13T10:46:47.120Z,56.23
2023-02-13T10:49:43.617Z,54.80
2023-02-13T10:52:29.645Z,54.85
2023-02-13T10:55:27.616Z,54.76
2023-02-13T10:58:14.116Z,54.66
2023-02-13T11:00:56.139Z,55.27
2023-02-13T11:03:31.746Z,55.59
2023-02-13T11:06:09.572Z,55.13
2023-02-13T11:08:46.007Z,54.06
2023-02-13T11:11:38.165Z,53.70
2023-02-13T11:14:14.940Z,54.61
2023-02-13T11:16:57.278Z,53.42
2023-02-13T11:19:34.342Z,52.97
2023-02-13T11:22:13.211Z,52.29
2023-02-13T11:24:54.522Z,52.69
2023-02-13T11:27:31.707Z,53.19
2023-02-13T11:30:26.637Z,52.15
2023-02-13T11:33:05.292Z,51.62
2023-02-13T11:35:39.275Z,52.80
2023-02-13T11:38:14.795Z,53.91
2023-02-13T11:40:51.216Z,53.09
2023-02-13T11:43:30.000Z,52.92
2023-02-13T11:46:06.128Z,52.54
2023-02-13T11:48:40.746Z,53.31
2023-02-13T11:51:13.990Z,53.30
2023-02-13T11:53:47.276Z,53.80
2023-02-13T11:56:20.807Z,53.60
2023-02-13T11:59:03.390Z,53.91
2023-02-13T12:01:36.686Z,53.40
2023-02-13T12:04:18.411Z,53.63
2023-02-13T12:07:01.396Z,53.70
2023-02-13T12:09:34.825Z,53.66
2023-02-13T12:12:17.356Z,53.15
2023-02-13T12:14:51.581Z,54.24
2023-02-13T12:17:31.709Z,54.49
2023-02-13T12:20:14.607Z,55.22
2023-02-13T12:23:01.940Z,55.14
2023-02-13T12:25:48.711Z,55.12
2023-02-13T12:28:29.479Z,54.55
2023-02-13T12:31:30.764Z,53.71
2023-02-13T12:34:54.650Z,53.75
2023-02-13T12:37:53.335Z,53.27
2023-02-13T12:40:40.876Z,52.84
2023-02-13T12:43:37.183Z,52.35
2023-02-13T12:46:16.903Z,52.36
2023-02-13T12:49:00.106Z,53.17
2023-02-13T12:51:46.528Z,53.68
2023-02-13T12:54:42.926Z,53.90
2023-02-13T12:57:36.589Z,53.55
2023-02-13T13:00:23.825Z,52.84
2023-02-13T13:03:38.037Z,52.41
2023-02-13T13:06:35.199Z,51.69
2023-02-13T13:09:33.853Z,49.96
2023-02-13T13:12:26.288Z,51.27
2023-02-13T13:15:09.804Z,50.75
2023-02-13T13:17:59.871Z,49.30
2023-02-13T13:20:59.321Z,50.71
2023-02-13T13:23:36.133Z,51.26
2023-02-13T13:26:21.267Z,50.40
2023-02-13T13:28:59.329Z,50.24
2023-02-13T13:31:35.668Z,49.98
2023-02-13T13:34:21.964Z,49.69
2023-02-13T13:37:01.809Z,50.15
2023-02-13T13:39:47.992Z,50.29
2023-02-13T13:42:29.532Z,51.66
2023-02-13T13:45:26.666Z,50.72
2023-02-13T13:48:21.402Z,50.37
2023-02-13T13:50:55.201Z,46.47
2023-02-13T13:53:28.313Z,46.93
2023-02-13T13:56:08.682Z,48.17
2023-02-13T13:58:44.784Z,48.63
2023-02-13T14:01:29.328Z,49.18
2023-02-13T14:04:04.497Z,48.89
2023-02-13T14:07:16.821Z,49.90
2023-02-13T14:09:50.646Z,49.87
2023-02-13T14:12:39.809Z,50.79
2023-02-13T14:15:46.941Z,50.42
2023-02-13T14:18:23.813Z,51.63
2023-02-13T14:20:59.529Z,53.10
2023-02-13T14:23:50.193Z,52.08
2023-02-13T14:26:37.250Z,51.46
2023-02-13T14:29:29.312Z,51.22
2023-02-13T14:32:28.927Z,51.97
2023-02-13T14:35:06.636Z,51.04
2023-02-13T14:37:49.124Z,51.63
2023-02-13T14:40:54.776Z,52.34
2023-02-13T14:43:34.456Z,52.88
2023-02-13T14:46:23.695Z,52.94
2023-02-13T14:49:01.372Z,52.48
2023-02-13T14:51:39.838Z,52.85
2023-02-13T14:54:23.104Z,53.22
2023-02-13T14:57:06.278Z,53.86
2023-02-13T14:59:46.368Z,53.92
2023-02-13T15:02:24.743Z,54.77
2023-02-13T15:05:01.296Z,55.75
2023-02-13T15:07:40.238Z,55.33
2023-02-13T15:10:33.117Z,54.62
2023-02-13T15:13:07.350Z,55.97
2023-02-13T15:15:42.407Z,55.37
2023-02-13T15:18:21.737Z,55.22
2023-02-13T15:20:58.741Z,55.19
2023-02-13T15:23:35.632Z,56.01
2023-02-13T15:26:09.535Z,55.97
2023-02-13T15:28:43.282Z,56.42
2023-02-13T15:31:24.884Z,56.76
2023-02-13T15:33:58.826Z,57.22
2023-02-13T15:36:40.777Z,57.18
2023-02-13T15:39:19.982Z,58.05
2023-02-13T15:41:56.531Z,58.44
2023-02-13T15:44:33.239Z,59.19
2023-02-13T15:47:09.624Z,59.80
2023-02-13T15:49:45.485Z,59.70
2023-02-13T15:52:22.962Z,60.33
2023-02-13T15:54:58.418Z,60.63
2023-02-13T15:57:33.344Z,61.04
2023-02-13T16:00:08.919Z,61.41
2023-02-13T16:02:47.567Z,60.64
2023-02-13T16:05:37.546Z,61.51
2023-02-13T16:08:29.182Z,61.55
2023-02-13T16:11:29.781Z,62.19
2023-02-13T16:14:14.024Z,62.76
2023-02-13T16:16:54.352Z,62.70
2023-02-13T16:19:32.076Z,62.57
2023-02-13T16:22:27.292Z,62.11
2023-02-13T16:25:08.690Z,62.29
2023-02-13T16:27:46.865Z,61.96
2023-02-13T16:30:34.132Z,61.97
2023-02-13T16:33:22.401Z,62.61
2023-02-13T16:35:57.412Z,62.74
2023-02-13T16:38:36.230Z,63.24
2023-02-13T16:41:31.916Z,63.05
2023-02-13T16:44:06.641Z,62.83
2023-02-13T16:46:42.293Z,63.70
2023-02-13T16:49:19.083Z,63.60
2023-02-13T16:52:12.543Z,63.63
2023-02-13T16:54:52.381Z,64.01
2023-02-13T16:57:30.243Z,64.36
2023-02-13T17:00:08.677Z,64.86
2023-02-13T17:02:41.913Z,65.10
2023-02-13T17:05:21.364Z,64.66
2023-02-13T17:07:58.997Z,65.31
2023-02-13T17:10:34.528Z,66.05
2023-02-13T17:13:17.632Z,65.55
2023-02-13T17:15:52.871Z,66.24
2023-02-13T17:18:26.649Z,66.25
2023-02-13T17:21:01.689Z,66.42
2023-02-13T17:23:35.187Z,66.56
2023-02-13T17:26:08.376Z,67.04
2023-02-13T17:28:41.646Z,67.24
2023-02-13T17:31:16.452Z,67.36
2023-02-13T17:33:50.347Z,67.38
2023-02-13T17:36:23.751Z,67.81
2023-02-13T17:38:57.012Z,67.52
2023-02-13T17:41:30.705Z,67.84
2023-02-13T17:44:03.931Z,67.45
2023-02-13T17:46:38.766Z,68.22
2023-02-13T17:49:15.141Z,67.80
2023-02-13T17:51:48.377Z,67.97
2023-02-13T17:54:21.529Z,68.93
2023-02-13T17:56:54.707Z,68.85
2023-02-13T17:59:27.966Z,68.46
2023-02-13T18:02:02.699Z,68.34
2023-02-13T18:04:36.040Z,67.16
2023-02-13T18:07:10.549Z,66.49
2023-02-13T18:09:43.868Z,66.62
2023-02-13T18:12:20.572Z,65.86
2023-02-13T18:14:54.794Z,65.59
2023-02-13T18:17:29.354Z,65.79
2023-02-13T18:20:02.822Z,66.47
2023-02-13T18:22:36.576Z,66.20
2023-02-13T18:25:10.561Z,66.16
2023-02-13T18:27:44.005Z,66.44
2023-02-13T18:30:20.959Z,66.74
2023-02-13T18:32:59.348Z,66.79
2023-02-13T18:35:34.850Z,67.48
2023-02-13T18:38:08.128Z,67.88
2023-02-13T18:40:41.274Z,67.69
2023-02-13T18:43:14.502Z,67.94
2023-02-13T18:45:47.630Z,68.11
2023-02-13T18:48:22.366Z,68.76
2023-02-13T18:50:55.739Z,68.79
2023-02-13T18:53:30.432Z,68.84
2023-02-13T18:56:04.894Z,69.71
2023-02-13T18:58:38.113Z,69.79
2023-02-13T19:01:14.102Z,69.18
2023-02-13T19:03:49.512Z,70.10
2023-02-13T19:06:24.756Z,70.14
2023-02-13T19:09:00.056Z,70.31
2023-02-13T19:11:34.353Z,70.47
2023-02-13T19:14:09.164Z,69.55
2023-02-13T19:16:43.444Z,69.21
2023-02-13T19:19:18.666Z,69.51
2023-02-13T19:21:52.499Z,70.42
2023-02-13T19:24:25.820Z,70.35
2023-02-13T19:27:00.439Z,70.66
2023-02-13T19:29:33.889Z,70.69
2023-02-13T19:32:07.131Z,70.84
2023-02-13T19:34:42.397Z,70.57
2023-02-13T19:37:15.816Z,71.23
2023-02-13T19:39:49.123Z,70.43
2023-02-13T19:42:22.513Z,71.49
2023-02-13T19:44:55.862Z,70.63
2023-02-13T19:47:29.113Z,70.80
2023-02-13T19:50:04.005Z,70.99
2023-02-13T19:52:37.751Z,71.03
2023-02-13T19:55:11.250Z,70.92
2023-02-13T19:57:44.671Z,70.61
2023-02-13T20:00:18.994Z,70.65
2023-02-13T20:02:55.215Z,71.69
2023-02-13T20:05:30.228Z,71.61
2023-02-13T20:08:04.289Z,71.59
2023-02-13T20:10:37.753Z,71.14
2023-02-13T20:13:11.699Z,71.80
2023-02-13T20:15:45.161Z,72.04
2023-02-13T20:18:19.780Z,71.04
2023-02-13T20:20:54.548Z,71.87
2023-02-13T20:23:28.085Z,72.04
2023-02-13T20:26:05.107Z,71.95
2023-02-13T20:28:38.464Z,71.81
2023-02-13T20:31:12.465Z,71.87
2023-02-13T20:33:46.503Z,71.50
2023-02-13T20:36:23.150Z,72.04
2023-02-13T20:38:59.654Z,71.51
2023-02-13T20:41:35.520Z,71.96
2023-02-13T20:44:11.635Z,72.04
2023-02-13T20:46:45.147Z,72.17
2023-02-13T20:49:21.788Z,72.29
2023-02-13T20:51:56.479Z,72.44
2023-02-13T20:54:29.683Z,72.68
2023-02-13T20:57:03.198Z,73.15
2023-02-13T20:59:36.709Z,72.20
2023-02-13T21:02:11.337Z,72.70
2023-02-13T21:04:45.005Z,71.88
2023-02-13T21:07:19.968Z,72.17
2023-02-13T21:09:53.171Z,71.96
2023-02-13T21:12:27.225Z,72.74
2023-02-13T21:15:01.272Z,71.96
2023-02-13T21:17:35.618Z,73.16
2023-02-13T21:20:09.953Z,73.03
2023-02-13T21:22:44.783Z,72.24
2023-02-13T21:25:18.751Z,72.94
2023-02-13T21:27:51.910Z,73.27
2023-02-13T21:30:25.171Z,73.63
2023-02-13T21:32:58.737Z,72.84
2023-02-13T21:35:32.368Z,73.04
2023-02-13T21:38:07.302Z,73.27
2023-02-13T21:40:41.056Z,74.06
2023-02-13T21:43:14.225Z,74.10
2023-02-13T21:45:47.394Z,73.11
2023-02-13T21:48:20.790Z,73.24
2023-02-13T21:50:54.316Z,72.96
2023-02-13T21:53:29.029Z,73.26
2023-02-13T21:56:03.418Z,73.48
2023-02-13T21:58:38.145Z,73.79
2023-02-13T22:01:20.525Z,73.54
2023-02-13T22:04:01.039Z,73.33
2023-02-13T22:06:36.232Z,74.09
2023-02-13T22:09:12.741Z,74.15
2023-02-13T22:11:51.456Z,73.85
2023-02-13T22:14:25.547Z,73.73
2023-02-13T22:16:59.743Z,73.57
2023-02-13T22:19:33.603Z,74.21
2023-02-13T22:22:06.966Z,74.28
2023-02-13T22:24:41.688Z,73.97
2023-02-13T22:27:14.904Z,74.55
2023-02-13T22:29:48.181Z,74.23
2023-02-13T22:32:21.744Z,75.26
2023-02-13T22:34:55.308Z,75.33
2023-02-13T22:37:28.578Z,75.14
2023-02-13T22:40:03.431Z,75.45
2023-02-13T22:42:36.499Z,75.52
2023-02-13T22:45:10.688Z,75.55
2023-02-13T22:47:44.234Z,75.74
2023-02-13T22:50:18.025Z,75.35
2023-02-13T22:52:51.451Z,75.67
2023-02-13T22:55:26.226Z,75.98
2023-02-13T22:57:59.369Z,75.10
2023-02-13T23:00:32.600Z,75.89
2023-02-13T23:03:05.736Z,76.45
2023-02-13T23:05:40.858Z,76.12
2023-02-13T23:08:14.797Z,76.08
2023-02-13T23:11:09.352Z,76.75
2023-02-13T23:13:44.337Z,76.20
2023-02-13T23:16:18.415Z,76.25
2023-02-13T23:18:52.055Z,76.05
2023-02-13T23:21:26.336Z,76.54
2023-02-13T23:23:59.568Z,76.75
2023-02-13T23:26:34.881Z,76.55
2023-02-13T23:29:08.173Z,76.62
2023-02-13T23:31:41.769Z,76.79
2023-02-13T23:34:15.141Z,76.66
2023-02-13T23:36:48.682Z,76.67
2023-02-13T23:39:24.304Z,76.10
2023-02-13T23:41:59.049Z,76.05
2023-02-13T23:44:32.219Z,76.14
2023-02-13T23:47:05.849Z,77.39
2023-02-13T23:49:39.308Z,76.77
2023-02-13T23:52:12.568Z,76.83
2023-02-13T23:54:46.152Z,76.51
2023-02-13T23:57:20.764Z,77.17
2023-02-13T23:59:54.053Z,76.67
